EDLP

Paderborn Lippstadt Airport

Paderborn, Germany
METAR EDLP 191950Z 29004KT 250V330 9999 FEW025 BKN048 19/15 Q1024
Observed Flight Rules
Jun-19 @ 19:50 UTC (27 minutes ago) Visual Flight Rules
Wind Visibility Clouds
290° at 4 knots 10,000+ meters
  • Few at 2,500' AGL
  • Broken at 4,800' AGL
Temperatures Readings
Current 19°C / 66°F
Dewpoint 15°C / 59°F
Humidity 78%
Altimeter 30.24" Hg
Pressure 1024 hPa
Elevation 213
METAR EDLP 191950Z 29004KT 250V330 9999 FEW025 BKN048 19/15 Q1024
Observed Flight Rules
Jun-19 @ 19:50 UTC
(27 minutes ago)
VFR
Wind Visibility
290° at 4 knots 10,000+ meters
Clouds
  • Few at 2,500' AGL
  • Broken at 4,800' AGL
Temperature Dewpoint
19°C / 66°F 15°C / 59°F
Humidity Altimeter Pressure
78% 30.24" Hg 1024 hPa